Monomeith, Australia

11:50 PM AEST on June 23, 2017 (GMT +1000)
Bayles, Australia | | Change Station

Elev 39 ft 38.18 °S, 145.57 °E | Updated 15 seconds ago

Overcast
Overcast
50.4 °F
Feels Like 50.4 °F
N
2.6
Wind Variable Wind from NW
Gusts 6.9 mph

Today
High -- | Low -- °F
--% Chance of Precip.
Yesterday
High -- | Low -- °F
Precip. -- in
Pressure 29.98 in
Visibility 6.2 miles
Clouds Scattered Clouds 2600 ft
Mostly Cloudy 3400 ft
Mostly Cloudy 4100 ft
Dew Point 48 °F
Humidity 92%
Rainfall 0.00 in
Snow Depth Not available.
7:34 AM 5:05 PM
Waning Crescent, 0% visible
SPECI YMEN 231330Z AUTO 27011KT 9999 SHRA SCT026 BKN034 BKN041 10/10 Q1015
Pressure 29.98 in
Visibility 6.2 miles
Clouds Scattered Clouds 2600 ft
Mostly Cloudy 3400 ft
Mostly Cloudy 4100 ft
Dew Point 48 °F
Humidity 92%
Rainfall 0.00 in
Snow Depth Not available.
7:34 AM 5:05 PM
Waning Crescent, 0% visible
SPECI YMEN 231330Z AUTO 27011KT 9999 SHRA SCT026 BKN034 BKN041 10/10 Q1015

Get Severe Weather Alerts

Thanks for signing up!

Be on the lookout for a verification email in your inbox.

You'll start receiving the daily forecast at 6 AM.

×

10-Day Weather Forecast

×

Almanac

Astronomy

Jun. 23, 2017 Rise Set
Actual Time
Civil Twilight
Nautical Twilight
Astronomical Twilight
Moon
Length of Visible Light
Length of Day
Tomorrow will be .
, % of the Moon is Illuminated

Today's Extremes

Country Highs Country Lows

Community

WunderPhotos

Category 6

Welcome to Category 6. This is the collective home for Weather Underground's featured writeups by Dr. Jeff Masters (right), Bob Henson (left), Chris Burt, and other regular contributors.

Nearby

Air Quality

  Air Quality AQ Index Pollutant
Not available.

Snow Depth

Station Depth Elevation

Earthquake Activity

City Distance Mag. Time & Date
Minimum magnitude displayed is 2.5.

Coastal Water Temperatures

Place Temperature

Stations

Nearby Weather Stations

Station Location Temp. Windchill Dew Point Humidity Wind Precip. Elev Updated Type